sensor_id;sensor_type;location;lat;lon;timestamp;pressure;altitude;pressure_sealevel;temperature;humidity
15267;BME280;7735;49.144;8.668;2023-09-19T00:02:00;99735.41;;;20.69;66.57
15267;BME280;7735;49.144;8.668;2023-09-19T00:04:31;99736.34;;;20.68;66.66
15267;BME280;7735;49.144;8.668;2023-09-19T00:06:58;99738.09;;;20.67;66.39
15267;BME280;7735;49.144;8.668;2023-09-19T00:09:27;99739.13;;;20.64;66.49
15267;BME280;7735;49.144;8.668;2023-09-19T00:11:53;99735.72;;;20.62;66.65
15267;BME280;7735;49.144;8.668;2023-09-19T00:14:20;99738.63;;;20.58;66.54
15267;BME280;7735;49.144;8.668;2023-09-19T00:16:49;99744.00;;;20.56;66.62
15267;BME280;7735;49.144;8.668;2023-09-19T00:19:16;99747.69;;;20.54;66.72
15267;BME280;7735;49.144;8.668;2023-09-19T00:21:44;99751.19;;;20.54;66.77
15267;BME280;7735;49.144;8.668;2023-09-19T00:24:11;99757.41;;;20.53;66.60
15267;BME280;7735;49.144;8.668;2023-09-19T00:26:38;99747.91;;;20.49;66.60
15267;BME280;7735;49.144;8.668;2023-09-19T00:29:05;99756.78;;;20.48;66.78
15267;BME280;7735;49.144;8.668;2023-09-19T00:31:34;99757.59;;;20.50;66.79
15267;BME280;7735;49.144;8.668;2023-09-19T00:34:03;99764.91;;;20.45;66.58
15267;BME280;7735;49.144;8.668;2023-09-19T00:36:31;99763.19;;;20.44;66.66
15267;BME280;7735;49.144;8.668;2023-09-19T00:39:00;99768.63;;;20.41;66.84
15267;BME280;7735;49.144;8.668;2023-09-19T00:41:27;99759.91;;;20.39;66.86
15267;BME280;7735;49.144;8.668;2023-09-19T00:43:55;99766.78;;;20.43;66.89
15267;BME280;7735;49.144;8.668;2023-09-19T00:46:22;99769.34;;;20.45;66.95
15267;BME280;7735;49.144;8.668;2023-09-19T00:48:49;99766.78;;;20.43;66.82
15267;BME280;7735;49.144;8.668;2023-09-19T00:51:15;99772.06;;;20.43;66.65
15267;BME280;7735;49.144;8.668;2023-09-19T00:53:45;99777.38;;;20.43;66.78
15267;BME280;7735;49.144;8.668;2023-09-19T00:56:14;99782.56;;;20.45;66.78
15267;BME280;7735;49.144;8.668;2023-09-19T00:58:43;99773.78;;;20.44;66.79
15267;BME280;7735;49.144;8.668;2023-09-19T01:01:11;99785.13;;;20.46;66.62
15267;BME280;7735;49.144;8.668;2023-09-19T01:03:40;99777.94;;;20.48;66.57
15267;BME280;7735;49.144;8.668;2023-09-19T01:06:07;99784.78;;;20.52;66.45
15267;BME280;7735;49.144;8.668;2023-09-19T01:08:33;99787.34;;;20.54;66.37
15267;BME280;7735;49.144;8.668;2023-09-19T01:11:06;99789.16;;;20.53;66.23
15267;BME280;7735;49.144;8.668;2023-09-19T01:13:45;99785.03;;;20.48;66.23
15267;BME280;7735;49.144;8.668;2023-09-19T01:16:19;99792.28;;;20.44;66.40
15267;BME280;7735;49.144;8.668;2023-09-19T01:18:52;99796.84;;;20.41;66.42
15267;BME280;7735;49.144;8.668;2023-09-19T01:21:26;99792.75;;;20.35;66.63
15267;BME280;7735;49.144;8.668;2023-09-19T01:24:16;99787.66;;;20.32;66.99
15267;BME280;7735;49.144;8.668;2023-09-19T01:27:05;99792.13;;;20.30;66.98
15267;BME280;7735;49.144;8.668;2023-09-19T01:29:38;99800.31;;;20.25;67.03
15267;BME280;7735;49.144;8.668;2023-09-19T01:32:08;99793.38;;;20.23;66.98
15267;BME280;7735;49.144;8.668;2023-09-19T01:34:45;99793.56;;;20.20;66.94
15267;BME280;7735;49.144;8.668;2023-09-19T01:37:14;99795.34;;;20.19;66.93
15267;BME280;7735;49.144;8.668;2023-09-19T01:39:44;99800.63;;;20.19;66.82
15267;BME280;7735;49.144;8.668;2023-09-19T01:42:20;99797.91;;;20.21;66.96
15267;BME280;7735;49.144;8.668;2023-09-19T01:44:54;99794.31;;;20.22;66.87
15267;BME280;7735;49.144;8.668;2023-09-19T01:47:28;99795.13;;;20.24;66.83
15267;BME280;7735;49.144;8.668;2023-09-19T01:50:06;99790.69;;;20.24;66.67
15267;BME280;7735;49.144;8.668;2023-09-19T01:52:44;99799.47;;;20.25;66.36
15267;BME280;7735;49.144;8.668;2023-09-19T01:55:14;99801.19;;;20.26;66.27
15267;BME280;7735;49.144;8.668;2023-09-19T01:57:49;99805.69;;;20.24;66.23
15267;BME280;7735;49.144;8.668;2023-09-19T02:00:20;99795.28;;;20.21;66.04
15267;BME280;7735;49.144;8.668;2023-09-19T02:02:50;99805.06;;;20.19;66.34
15267;BME280;7735;49.144;8.668;2023-09-19T02:05:25;99806.59;;;20.23;66.10
15267;BME280;7735;49.144;8.668;2023-09-19T02:07:53;99808.50;;;20.21;66.00
15267;BME280;7735;49.144;8.668;2023-09-19T02:10:21;99807.91;;;20.16;66.01
15267;BME280;7735;49.144;8.668;2023-09-19T02:12:47;99813.31;;;20.13;66.20
15267;BME280;7735;49.144;8.668;2023-09-19T02:15:15;99814.97;;;20.15;66.51
15267;BME280;7735;49.144;8.668;2023-09-19T02:17:42;99815.03;;;20.14;66.27
15267;BME280;7735;49.144;8.668;2023-09-19T02:20:11;99826.53;;;20.13;66.48
15267;BME280;7735;49.144;8.668;2023-09-19T02:22:40;99826.41;;;20.16;66.61
15267;BME280;7735;49.144;8.668;2023-09-19T02:25:07;99835.09;;;20.18;66.59
15267;BME280;7735;49.144;8.668;2023-09-19T02:27:34;99835.09;;;20.18;66.75
15267;BME280;7735;49.144;8.668;2023-09-19T02:30:02;99845.41;;;20.22;66.68
15267;BME280;7735;49.144;8.668;2023-09-19T02:32:29;99850.66;;;20.24;66.71
15267;BME280;7735;49.144;8.668;2023-09-19T02:34:57;99840.94;;;20.24;66.54
15267;BME280;7735;49.144;8.668;2023-09-19T02:37:25;99843.47;;;20.26;66.74
15267;BME280;7735;49.144;8.668;2023-09-19T02:39:52;99850.66;;;20.24;66.57
15267;BME280;7735;49.144;8.668;2023-09-19T02:42:19;99846.13;;;20.26;66.79
15267;BME280;7735;49.144;8.668;2023-09-19T02:44:46;99851.31;;;20.27;66.77
15267;BME280;7735;49.144;8.668;2023-09-19T02:47:13;99851.31;;;20.27;66.97
15267;BME280;7735;49.144;8.668;2023-09-19T02:49:42;99849.38;;;20.31;66.87
15267;BME280;7735;49.144;8.668;2023-09-19T02:52:08;99851.16;;;20.30;66.88
15267;BME280;7735;49.144;8.668;2023-09-19T02:54:37;99854.59;;;20.32;66.82
15267;BME280;7735;49.144;8.668;2023-09-19T02:57:04;99855.59;;;20.30;66.66
15267;BME280;7735;49.144;8.668;2023-09-19T02:59:32;99856.53;;;20.29;66.96
15267;BME280;7735;49.144;8.668;2023-09-19T03:02:02;99854.06;;;20.26;67.18
15267;BME280;7735;49.144;8.668;2023-09-19T03:04:30;99854.06;;;20.26;67.17
15267;BME280;7735;49.144;8.668;2023-09-19T03:06:58;99860.28;;;20.25;67.21
15267;BME280;7735;49.144;8.668;2023-09-19T03:09:26;99862.13;;;20.23;67.55
15267;BME280;7735;49.144;8.668;2023-09-19T03:11:54;99861.22;;;20.24;67.49
15267;BME280;7735;49.144;8.668;2023-09-19T03:14:21;99864.78;;;20.23;67.59
15267;BME280;7735;49.144;8.668;2023-09-19T03:16:48;99872.03;;;20.19;67.75
15267;BME280;7735;49.144;8.668;2023-09-19T03:19:17;99866.66;;;20.21;67.87
15267;BME280;7735;49.144;8.668;2023-09-19T03:21:46;99875.34;;;20.23;67.83
15267;BME280;7735;49.144;8.668;2023-09-19T03:24:14;99875.34;;;20.23;67.75
15267;BME280;7735;49.144;8.668;2023-09-19T03:26:41;99881.56;;;20.22;67.90
15267;BME280;7735;49.144;8.668;2023-09-19T03:29:09;99873.63;;;20.22;67.93
15267;BME280;7735;49.144;8.668;2023-09-19T03:31:36;99872.78;;;20.21;67.99
15267;BME280;7735;49.144;8.668;2023-09-19T03:34:03;99870.22;;;20.20;67.81
15267;BME280;7735;49.144;8.668;2023-09-19T03:36:30;99870.31;;;20.18;68.02
15267;BME280;7735;49.144;8.668;2023-09-19T03:38:57;99875.50;;;20.20;67.99
15267;BME280;7735;49.144;8.668;2023-09-19T03:41:23;99875.34;;;20.23;68.13
15267;BME280;7735;49.144;8.668;2023-09-19T03:43:50;99880.63;;;20.23;68.04
15267;BME280;7735;49.144;8.668;2023-09-19T03:46:18;99877.09;;;20.24;67.90
15267;BME280;7735;49.144;8.668;2023-09-19T03:48:44;99884.22;;;20.22;68.08
15267;BME280;7735;49.144;8.668;2023-09-19T03:51:11;99880.63;;;20.23;67.96
15267;BME280;7735;49.144;8.668;2023-09-19T03:53:37;99882.38;;;20.24;67.86
15267;BME280;7735;49.144;8.668;2023-09-19T03:56:04;99879.66;;;20.25;68.10
15267;BME280;7735;49.144;8.668;2023-09-19T03:58:31;99882.38;;;20.24;68.01
15267;BME280;7735;49.144;8.668;2023-09-19T04:00:59;99882.38;;;20.24;67.99
15267;BME280;7735;49.144;8.668;2023-09-19T04:03:27;99881.50;;;20.23;67.83
15267;BME280;7735;49.144;8.668;2023-09-19T04:06:00;99884.31;;;20.20;68.12
15267;BME280;7735;49.144;8.668;2023-09-19T04:08:27;99893.25;;;20.18;67.92
15267;BME280;7735;49.144;8.668;2023-09-19T04:10:54;99888.81;;;20.18;68.09
15267;BME280;7735;49.144;8.668;2023-09-19T04:13:21;99890.53;;;20.19;68.15
15267;BME280;7735;49.144;8.668;2023-09-19T04:15:48;99909.97;;;20.18;68.22
15267;BME280;7735;49.144;8.668;2023-09-19T04:18:15;99910.66;;;20.22;68.21
15267;BME280;7735;49.144;8.668;2023-09-19T04:20:48;99921.09;;;20.25;67.99
15267;BME280;7735;49.144;8.668;2023-09-19T04:23:15;99906.94;;;20.26;67.92
15267;BME280;7735;49.144;8.668;2023-09-19T04:25:42;99919.22;;;20.27;68.02
15267;BME280;7735;49.144;8.668;2023-09-19T04:28:09;99916.47;;;20.28;68.11
15267;BME280;7735;49.144;8.668;2023-09-19T04:30:36;99930.47;;;20.30;68.30
15267;BME280;7735;49.144;8.668;2023-09-19T04:33:03;99926.00;;;20.32;68.17
15267;BME280;7735;49.144;8.668;2023-09-19T04:35:30;99935.53;;;20.35;68.26
15267;BME280;7735;49.144;8.668;2023-09-19T04:37:58;99932.72;;;20.38;68.12
15267;BME280;7735;49.144;8.668;2023-09-19T04:40:25;99937.56;;;20.47;68.17
15267;BME280;7735;49.144;8.668;2023-09-19T04:42:56;99934.69;;;20.69;67.85
15267;BME280;7735;49.144;8.668;2023-09-19T04:45:23;99931.78;;;20.74;67.39
15267;BME280;7735;49.144;8.668;2023-09-19T04:47:49;99937.69;;;20.79;67.01
15267;BME280;7735;49.144;8.668;2023-09-19T04:50:16;99941.28;;;20.78;66.85
15267;BME280;7735;49.144;8.668;2023-09-19T04:52:43;99939.72;;;20.74;66.87
15267;BME280;7735;49.144;8.668;2023-09-19T04:55:12;99946.88;;;20.72;66.85
15267;BME280;7735;49.144;8.668;2023-09-19T04:57:42;99954.06;;;20.70;66.79
15267;BME280;7735;49.144;8.668;2023-09-19T05:00:11;99952.47;;;20.65;66.99
15267;BME280;7735;49.144;8.668;2023-09-19T05:02:39;99950.78;;;20.64;67.02
15267;BME280;7735;49.144;8.668;2023-09-19T05:05:07;99964.00;;;20.64;67.20
15267;BME280;7735;49.144;8.668;2023-09-19T05:07:35;99962.13;;;20.67;67.17
15267;BME280;7735;49.144;8.668;2023-09-19T05:10:02;99963.78;;;20.69;67.38
15267;BME280;7735;49.144;8.668;2023-09-19T05:12:32;99952.34;;;20.69;67.18
15267;BME280;7735;49.144;8.668;2023-09-19T05:14:59;99958.50;;;20.69;67.12
15267;BME280;7735;49.144;8.668;2023-09-19T05:17:26;99951.41;;;20.70;67.14
15267;BME280;7735;49.144;8.668;2023-09-19T05:19:53;99964.63;;;20.70;67.14
15267;BME280;7735;49.144;8.668;2023-09-19T05:22:19;99964.72;;;20.68;67.01
15267;BME280;7735;49.144;8.668;2023-09-19T05:24:46;99964.78;;;20.67;66.97
15267;BME280;7735;49.144;8.668;2023-09-19T05:27:13;99968.34;;;20.65;67.11
15267;BME280;7735;49.144;8.668;2023-09-19T05:29:43;99968.53;;;20.62;66.90
15267;BME280;7735;49.144;8.668;2023-09-19T05:32:10;99966.06;;;20.59;67.14
15267;BME280;7735;49.144;8.668;2023-09-19T05:34:37;99978.72;;;20.53;66.82
15267;BME280;7735;49.144;8.668;2023-09-19T05:37:05;99986.88;;;20.48;66.85
15267;BME280;7735;49.144;8.668;2023-09-19T05:39:32;99984.25;;;20.48;66.70
15267;BME280;7735;49.144;8.668;2023-09-19T05:41:58;99987.91;;;20.46;66.95
15267;BME280;7735;49.144;8.668;2023-09-19T05:44:25;99993.88;;;20.49;66.92
15267;BME280;7735;49.144;8.668;2023-09-19T05:46:53;99992.91;;;20.52;66.93
15267;BME280;7735;49.144;8.668;2023-09-19T05:49:22;100002.47;;;20.54;67.02
15267;BME280;7735;49.144;8.668;2023-09-19T05:51:50;100007.56;;;20.57;67.03
15267;BME280;7735;49.144;8.668;2023-09-19T05:54:19;100009.31;;;20.58;67.20
15267;BME280;7735;49.144;8.668;2023-09-19T05:56:45;100013.72;;;20.58;67.11
15267;BME280;7735;49.144;8.668;2023-09-19T05:59:12;100012.88;;;20.57;67.30
15267;BME280;7735;49.144;8.668;2023-09-19T06:01:39;100015.59;;;20.56;67.44
15267;BME280;7735;49.144;8.668;2023-09-19T06:04:07;100014.66;;;20.57;67.76
15267;BME280;7735;49.144;8.668;2023-09-19T06:06:34;100014.75;;;20.55;67.90
15267;BME280;7735;49.144;8.668;2023-09-19T06:09:05;100014.06;;;20.52;67.96
15267;BME280;7735;49.144;8.668;2023-09-19T06:11:33;100013.34;;;20.48;68.07
15267;BME280;7735;49.144;8.668;2023-09-19T06:14:00;100017.94;;;20.45;68.42
15267;BME280;7735;49.144;8.668;2023-09-19T06:16:27;100021.56;;;20.42;68.32
15267;BME280;7735;49.144;8.668;2023-09-19T06:18:54;100018.97;;;20.41;68.54
15267;BME280;7735;49.144;8.668;2023-09-19T06:21:22;100024.50;;;20.36;68.23
15267;BME280;7735;49.144;8.668;2023-09-19T06:23:49;100022.09;;;20.31;68.27
15267;BME280;7735;49.144;8.668;2023-09-19T06:26:16;100029.16;;;20.31;68.28
15267;BME280;7735;49.144;8.668;2023-09-19T06:28:42;100029.97;;;20.33;68.18
15267;BME280;7735;49.144;8.668;2023-09-19T06:31:09;100024.81;;;20.30;67.74
15267;BME280;7735;49.144;8.668;2023-09-19T06:33:36;100032.75;;;20.30;67.76
15267;BME280;7735;49.144;8.668;2023-09-19T06:36:04;100042.38;;;20.31;67.71
15267;BME280;7735;49.144;8.668;2023-09-19T06:38:32;100045.97;;;20.30;67.70
15267;BME280;7735;49.144;8.668;2023-09-19T06:41:02;100043.22;;;20.31;67.56
15267;BME280;7735;49.144;8.668;2023-09-19T06:43:30;100048.69;;;20.28;67.07
15267;BME280;7735;49.144;8.668;2023-09-19T06:45:59;100059.56;;;20.22;66.85
15267;BME280;7735;49.144;8.668;2023-09-19T06:48:26;100065.09;;;20.18;66.74
15267;BME280;7735;49.144;8.668;2023-09-19T06:50:54;100058.09;;;20.17;66.52
15267;BME280;7735;49.144;8.668;2023-09-19T06:53:21;100063.66;;;20.11;66.51
15267;BME280;7735;49.144;8.668;2023-09-19T06:55:50;100057.75;;;20.05;66.56
15267;BME280;7735;49.144;8.668;2023-09-19T06:58:17;100056.88;;;20.05;66.45
15267;BME280;7735;49.144;8.668;2023-09-19T07:00:44;100051.53;;;20.06;66.30
15267;BME280;7735;49.144;8.668;2023-09-19T07:03:13;100062.03;;;20.08;66.14
15267;BME280;7735;49.144;8.668;2023-09-19T07:05:41;100073.16;;;20.15;66.31
15267;BME280;7735;49.144;8.668;2023-09-19T07:08:09;100074.88;;;20.16;66.17
15267;BME280;7735;49.144;8.668;2023-09-19T07:10:37;100082.16;;;20.11;65.80
15267;BME280;7735;49.144;8.668;2023-09-19T07:13:07;100074.41;;;20.07;65.50
15267;BME280;7735;49.144;8.668;2023-09-19T07:15:36;100074.41;;;20.07;65.76
15267;BME280;7735;49.144;8.668;2023-09-19T07:18:05;100080.16;;;20.16;65.82
15267;BME280;7735;49.144;8.668;2023-09-19T07:20:32;100089.66;;;20.20;65.46
15267;BME280;7735;49.144;8.668;2023-09-19T07:22:59;100090.44;;;20.22;65.02
15267;BME280;7735;49.144;8.668;2023-09-19T07:25:26;100097.38;;;20.24;65.02
15267;BME280;7735;49.144;8.668;2023-09-19T07:27:55;100093.63;;;20.28;64.70
15267;BME280;7735;49.144;8.668;2023-09-19T07:30:23;100097.13;;;20.29;64.00
15267;BME280;7735;49.144;8.668;2023-09-19T07:32:50;100103.50;;;20.25;63.63
15267;BME280;7735;49.144;8.668;2023-09-19T07:35:17;100107.38;;;20.18;63.14
15267;BME280;7735;49.144;8.668;2023-09-19T07:37:45;100105.66;;;20.17;63.02
15267;BME280;7735;49.144;8.668;2023-09-19T07:40:14;100105.75;;;20.15;62.63
15267;BME280;7735;49.144;8.668;2023-09-19T07:42:41;100113.53;;;20.18;62.49
15267;BME280;7735;49.144;8.668;2023-09-19T07:45:10;100104.75;;;20.18;61.93
15267;BME280;7735;49.144;8.668;2023-09-19T07:47:43;100113.59;;;20.17;62.07
15267;BME280;7735;49.144;8.668;2023-09-19T07:50:10;100105.50;;;20.20;62.03
15267;BME280;7735;49.144;8.668;2023-09-19T07:52:37;100109.88;;;20.21;61.76
15267;BME280;7735;49.144;8.668;2023-09-19T07:55:05;100119.50;;;20.22;61.65
15267;BME280;7735;49.144;8.668;2023-09-19T07:57:36;100125.59;;;20.24;61.60
15267;BME280;7735;49.144;8.668;2023-09-19T08:00:03;100121.88;;;20.28;61.68
15267;BME280;7735;49.144;8.668;2023-09-19T08:02:34;100125.16;;;20.33;61.53
15267;BME280;7735;49.144;8.668;2023-09-19T08:05:02;100128.41;;;20.38;61.17
15267;BME280;7735;49.144;8.668;2023-09-19T08:07:31;100138.16;;;20.37;60.26
15267;BME280;7735;49.144;8.668;2023-09-19T08:09:58;100136.44;;;20.36;59.51
15267;BME280;7735;49.144;8.668;2023-09-19T08:12:24;100136.44;;;20.36;58.76
15267;BME280;7735;49.144;8.668;2023-09-19T08:14:52;100140.00;;;20.35;58.73
15267;BME280;7735;49.144;8.668;2023-09-19T08:17:18;100149.56;;;20.38;58.78
15267;BME280;7735;49.144;8.668;2023-09-19T08:19:45;100139.00;;;20.38;58.07
15267;BME280;7735;49.144;8.668;2023-09-19T08:22:13;100146.84;;;20.40;57.71
15267;BME280;7735;49.144;8.668;2023-09-19T08:24:42;100144.22;;;20.40;57.41
15267;BME280;7735;49.144;8.668;2023-09-19T08:27:09;100149.44;;;20.41;56.94
15267;BME280;7735;49.144;8.668;2023-09-19T08:29:37;100151.03;;;20.45;56.96
15267;BME280;7735;49.144;8.668;2023-09-19T08:32:04;100154.31;;;20.50;57.16
15267;BME280;7735;49.144;8.668;2023-09-19T08:34:31;100152.16;;;20.58;57.47
15267;BME280;7735;49.144;8.668;2023-09-19T08:36:59;100151.06;;;20.62;57.17
15267;BME280;7735;49.144;8.668;2023-09-19T08:39:27;100153.56;;;20.65;56.96
15267;BME280;7735;49.144;8.668;2023-09-19T08:41:59;100155.06;;;20.71;57.09
15267;BME280;7735;49.144;8.668;2023-09-19T08:44:26;100160.34;;;20.71;56.37
15267;BME280;7735;49.144;8.668;2023-09-19T08:47:01;100161.28;;;20.70;56.28
15267;BME280;7735;49.144;8.668;2023-09-19T08:49:36;100152.31;;;20.73;55.94
15267;BME280;7735;49.144;8.668;2023-09-19T08:52:08;100163.94;;;20.70;55.39
15267;BME280;7735;49.144;8.668;2023-09-19T08:54:39;100163.06;;;20.70;54.95
15267;BME280;7735;49.144;8.668;2023-09-19T08:57:07;100163.84;;;20.72;54.88
15267;BME280;7735;49.144;8.668;2023-09-19T08:59:37;100163.69;;;20.75;54.96
15267;BME280;7735;49.144;8.668;2023-09-19T09:02:09;100163.69;;;20.75;54.72
15267;BME280;7735;49.144;8.668;2023-09-19T09:04:39;100163.56;;;20.78;54.58
15267;BME280;7735;49.144;8.668;2023-09-19T09:07:10;100159.97;;;20.79;54.32
15267;BME280;7735;49.144;8.668;2023-09-19T09:09:39;100168.84;;;20.78;54.02
15267;BME280;7735;49.144;8.668;2023-09-19T09:12:08;100172.44;;;20.77;53.79
15267;BME280;7735;49.144;8.668;2023-09-19T09:14:37;100168.03;;;20.76;53.87
15267;BME280;7735;49.144;8.668;2023-09-19T09:17:04;100159.13;;;20.78;54.04
15267;BME280;7735;49.144;8.668;2023-09-19T09:19:31;100158.75;;;20.86;54.25
15267;BME280;7735;49.144;8.668;2023-09-19T09:22:06;100155.75;;;20.92;54.00
15267;BME280;7735;49.144;8.668;2023-09-19T09:24:32;100168.06;;;20.93;53.07
15267;BME280;7735;49.144;8.668;2023-09-19T09:27:03;100154.81;;;20.93;52.19
15267;BME280;7735;49.144;8.668;2023-09-19T09:29:44;100151.88;;;20.99;52.64
15267;BME280;7735;49.144;8.668;2023-09-19T09:32:22;100154.31;;;21.04;52.50
15267;BME280;7735;49.144;8.668;2023-09-19T09:34:51;100158.28;;;21.12;52.29
15267;BME280;7735;49.144;8.668;2023-09-19T09:37:18;100156.09;;;21.20;52.14
15267;BME280;7735;49.144;8.668;2023-09-19T09:39:50;100158.50;;;21.25;52.07
15267;BME280;7735;49.144;8.668;2023-09-19T09:42:31;100154.63;;;21.32;52.35
15267;BME280;7735;49.144;8.668;2023-09-19T09:45:13;100158.41;;;21.44;52.05
15267;BME280;7735;49.144;8.668;2023-09-19T09:47:44;100168.63;;;21.52;51.95
15267;BME280;7735;49.144;8.668;2023-09-19T09:50:30;100157.44;;;21.62;51.01
15267;BME280;7735;49.144;8.668;2023-09-19T09:53:22;100147.25;;;21.88;50.28
15267;BME280;7735;49.144;8.668;2023-09-19T09:55:58;100151.47;;;21.92;49.86
15267;BME280;7735;49.144;8.668;2023-09-19T09:58:27;100152.38;;;21.91;48.83
15267;BME280;7735;49.144;8.668;2023-09-19T10:00:55;100151.78;;;21.86;47.46
15267;BME280;7735;49.144;8.668;2023-09-19T10:03:31;100157.94;;;21.86;47.54
15267;BME280;7735;49.144;8.668;2023-09-19T10:06:00;100148.81;;;21.92;48.26
15267;BME280;7735;49.144;8.668;2023-09-19T10:08:34;100151.91;;;22.00;48.03
15267;BME280;7735;49.144;8.668;2023-09-19T10:11:15;100154.13;;;22.08;47.31
15267;BME280;7735;49.144;8.668;2023-09-19T10:13:44;100156.78;;;22.08;46.77
15267;BME280;7735;49.144;8.668;2023-09-19T10:16:12;100144.22;;;22.11;45.92
15267;BME280;7735;49.144;8.668;2023-09-19T10:18:50;100156.38;;;22.15;46.21
15267;BME280;7735;49.144;8.668;2023-09-19T10:21:19;100153.56;;;22.18;45.86
15267;BME280;7735;49.144;8.668;2023-09-19T10:23:48;100158.59;;;22.23;45.52
15267;BME280;7735;49.144;8.668;2023-09-19T10:26:17;100161.94;;;22.26;45.10
15267;BME280;7735;49.144;8.668;2023-09-19T10:28:46;100145.25;;;22.24;45.05
15267;BME280;7735;49.144;8.668;2023-09-19T10:31:18;100147.97;;;22.23;45.12
15267;BME280;7735;49.144;8.668;2023-09-19T10:33:47;100143.72;;;22.20;45.26
15267;BME280;7735;49.144;8.668;2023-09-19T10:36:16;100151.06;;;22.15;44.81
15267;BME280;7735;49.144;8.668;2023-09-19T10:38:45;100145.19;;;22.10;45.12
15267;BME280;7735;49.144;8.668;2023-09-19T10:41:15;100150.56;;;22.09;44.59
15267;BME280;7735;49.144;8.668;2023-09-19T10:43:43;100144.38;;;22.08;44.92
15267;BME280;7735;49.144;8.668;2023-09-19T10:46:13;100144.38;;;22.08;45.07
15267;BME280;7735;49.144;8.668;2023-09-19T10:48:40;100135.50;;;22.09;45.36
15267;BME280;7735;49.144;8.668;2023-09-19T10:51:11;100144.03;;;22.14;45.50
15267;BME280;7735;49.144;8.668;2023-09-19T10:53:44;100131.72;;;22.29;44.33
15267;BME280;7735;49.144;8.668;2023-09-19T10:56:18;100144.00;;;22.61;43.87
15267;BME280;7735;49.144;8.668;2023-09-19T10:58:48;100139.03;;;22.71;43.63
15267;BME280;7735;49.144;8.668;2023-09-19T11:01:16;100140.25;;;22.66;43.43
15267;BME280;7735;49.144;8.668;2023-09-19T11:03:43;100138.78;;;22.60;43.49
15267;BME280;7735;49.144;8.668;2023-09-19T11:06:12;100138.88;;;22.58;43.68
15267;BME280;7735;49.144;8.668;2023-09-19T11:08:56;100136.31;;;22.57;43.71
15267;BME280;7735;49.144;8.668;2023-09-19T11:11:44;100137.84;;;22.61;44.30
15267;BME280;7735;49.144;8.668;2023-09-19T11:14:28;100128.97;;;22.62;44.61
15267;BME280;7735;49.144;8.668;2023-09-19T11:17:32;100140.25;;;22.66;44.57
15267;BME280;7735;49.144;8.668;2023-09-19T11:20:26;100126.88;;;22.67;44.53
15267;BME280;7735;49.144;8.668;2023-09-19T11:23:30;100127.81;;;22.66;44.25
15267;BME280;7735;49.144;8.668;2023-09-19T11:25:57;100113.41;;;22.70;44.33
15267;BME280;7735;49.144;8.668;2023-09-19T11:28:34;100120.78;;;22.81;44.00
15267;BME280;7735;49.144;8.668;2023-09-19T11:34:42;100114.50;;;22.98;43.21
15267;BME280;7735;49.144;8.668;2023-09-19T11:40:27;100118.78;;;23.00;42.79
15267;BME280;7735;49.144;8.668;2023-09-19T11:42:53;100107.69;;;23.08;43.10
15267;BME280;7735;49.144;8.668;2023-09-19T11:48:26;100103.16;;;23.24;42.79
15267;BME280;7735;49.144;8.668;2023-09-19T11:50:56;100119.84;;;23.26;41.56
15267;BME280;7735;49.144;8.668;2023-09-19T11:53:31;100095.66;;;23.31;41.12
15267;BME280;7735;49.144;8.668;2023-09-19T11:55:58;100105.91;;;23.37;41.55
15267;BME280;7735;49.144;8.668;2023-09-19T11:58:27;100097.28;;;23.48;41.71
15267;BME280;7735;49.144;8.668;2023-09-19T12:00:55;100089.56;;;23.57;41.63
15267;BME280;7735;49.144;8.668;2023-09-19T12:03:29;100090.94;;;23.64;40.94
15267;BME280;7735;49.144;8.668;2023-09-19T12:05:58;100101.31;;;23.69;41.23
15267;BME280;7735;49.144;8.668;2023-09-19T12:08:24;100095.56;;;23.75;41.19
15267;BME280;7735;49.144;8.668;2023-09-19T12:10:53;100098.81;;;23.80;40.84
15267;BME280;7735;49.144;8.668;2023-09-19T12:13:20;100092.44;;;23.83;41.31
15267;BME280;7735;49.144;8.668;2023-09-19T12:15:47;100086.63;;;23.90;40.86
15267;BME280;7735;49.144;8.668;2023-09-19T12:18:27;100083.38;;;23.99;40.75
15267;BME280;7735;49.144;8.668;2023-09-19T12:20:55;100082.78;;;24.09;40.79
15267;BME280;7735;49.144;8.668;2023-09-19T12:23:24;100071.88;;;24.13;40.52
15267;BME280;7735;49.144;8.668;2023-09-19T12:25:51;100079.25;;;24.22;40.04
15267;BME280;7735;49.144;8.668;2023-09-19T12:28:22;100077.78;;;24.31;39.11
15267;BME280;7735;49.144;8.668;2023-09-19T12:30:50;100072.06;;;24.37;39.14
15267;BME280;7735;49.144;8.668;2023-09-19T12:33:21;100068.28;;;24.41;38.89
15267;BME280;7735;49.144;8.668;2023-09-19T12:35:51;100059.78;;;24.49;38.67
15267;BME280;7735;49.144;8.668;2023-09-19T12:38:27;100060.19;;;24.55;38.72
15267;BME280;7735;49.144;8.668;2023-09-19T12:40:55;100048.91;;;24.65;38.89
15267;BME280;7735;49.144;8.668;2023-09-19T12:43:24;100048.97;;;24.77;39.04
15267;BME280;7735;49.144;8.668;2023-09-19T12:45:51;100051.09;;;24.85;39.06
15267;BME280;7735;49.144;8.668;2023-09-19T12:48:20;100050.47;;;24.94;38.97
15267;BME280;7735;49.144;8.668;2023-09-19T12:51:00;100052.72;;;25.00;38.79
15267;BME280;7735;49.144;8.668;2023-09-19T12:53:33;100061.38;;;25.04;38.74
15267;BME280;7735;49.144;8.668;2023-09-19T12:56:03;100045.81;;;25.10;38.48
15267;BME280;7735;49.144;8.668;2023-09-19T12:58:32;100049.97;;;25.14;38.40
15267;BME280;7735;49.144;8.668;2023-09-19T13:01:00;100043.69;;;25.16;38.73
15267;BME280;7735;49.144;8.668;2023-09-19T13:03:27;100037.94;;;25.22;38.21
15267;BME280;7735;49.144;8.668;2023-09-19T13:05:59;100034.84;;;25.28;38.46
15267;BME280;7735;49.144;8.668;2023-09-19T13:08:28;100036.00;;;25.24;38.44
15267;BME280;7735;49.144;8.668;2023-09-19T13:11:05;100050.28;;;25.23;38.24
15267;BME280;7735;49.144;8.668;2023-09-19T13:13:32;100034.91;;;25.26;38.39
15267;BME280;7735;49.144;8.668;2023-09-19T13:16:01;100041.13;;;25.27;38.15
15267;BME280;7735;49.144;8.668;2023-09-19T13:18:29;100041.13;;;25.27;37.75
15267;BME280;7735;49.144;8.668;2023-09-19T13:21:07;100040.69;;;25.33;37.51
15267;BME280;7735;49.144;8.668;2023-09-19T13:23:37;100035.16;;;25.36;37.43
15267;BME280;7735;49.144;8.668;2023-09-19T13:26:06;100036.84;;;25.37;37.35
15267;BME280;7735;49.144;8.668;2023-09-19T13:28:33;100026.69;;;25.42;37.03